Time;durP1;ratioP1;P1;durP2;ratioP2;P2;SDS_P1;SDS_P2;PMS_P1;PMS_P2;Temp;Humidity;BMP_temperature;BMP_pressure;BME280_temperature;BME280_humidity;BME280_pressure;Samples;Min_cycle;Max_cycle;Signal;HPM_P1;HPM_P2
2023/01/13 00:00:17;;;;;;;2.05;1.13;;;18.10;59.20;;;;;;5052863;28;20229;-65
2023/01/13 00:02:42;;;;;;;1.42;0.70;;;18.10;59.20;;;;;;5053321;28;20640;-64
2023/01/13 00:05:09;;;;;;;2.42;1.00;;;18.10;59.20;;;;;;5052924;28;20216;-63
2023/01/13 00:07:34;;;;;;;2.03;1.00;;;18.10;59.30;;;;;;5053372;28;20206;-63
2023/01/13 00:10:00;;;;;;;3.20;0.90;;;18.00;59.20;;;;;;5053529;28;20209;-63
2023/01/13 00:12:25;;;;;;;2.22;1.08;;;18.10;59.30;;;;;;5052822;28;20178;-64
2023/01/13 00:14:51;;;;;;;1.42;0.90;;;18.00;59.20;;;;;;5053145;28;20175;-64
2023/01/13 00:17:16;;;;;;;1.65;0.90;;;18.00;59.20;;;;;;5053430;28;20178;-65
2023/01/13 00:19:42;;;;;;;2.67;1.20;;;18.00;59.20;;;;;;5052203;28;20214;-64
2023/01/13 00:22:07;;;;;;;4.40;1.27;;;18.00;59.10;;;;;;5053647;28;20175;-64
2023/01/13 00:24:33;;;;;;;2.53;1.13;;;17.90;58.90;;;;;;5053083;28;20175;-64
2023/01/13 00:26:58;;;;;;;2.20;1.00;;;18.00;58.80;;;;;;5052423;28;20186;-64
2023/01/13 00:29:24;;;;;;;2.10;1.10;;;17.90;58.90;;;;;;5053360;28;20373;-64
2023/01/13 00:31:49;;;;;;;2.13;1.00;;;18.00;59.60;;;;;;5053110;28;20179;-63
2023/01/13 00:34:15;;;;;;;2.83;1.40;;;17.90;58.90;;;;;;5052679;28;20216;-64
2023/01/13 00:36:40;;;;;;;2.83;1.15;;;17.90;58.80;;;;;;5053012;28;20187;-65
2023/01/13 00:39:06;;;;;;;2.88;1.23;;;17.90;58.90;;;;;;5053182;28;20167;-64
2023/01/13 00:43:21;;;;;;;3.92;1.50;;;17.90;58.80;;;;;;5052267;28;20236;-65
2023/01/13 00:44:17;;;;;;;2.78;1.30;;;17.90;58.70;;;;;;5052867;28;20261;-65
2023/01/13 00:46:43;;;;;;;2.40;1.35;;;17.80;58.60;;;;;;5052906;28;20226;-64
2023/01/13 00:49:08;;;;;;;3.13;1.52;;;17.80;58.60;;;;;;5052261;28;20171;-63
2023/01/13 00:51:34;;;;;;;2.25;1.08;;;17.80;58.60;;;;;;5052827;28;20262;-63
2023/01/13 00:53:59;;;;;;;5.68;1.42;;;17.80;58.60;;;;;;5052315;28;20638;-64
2023/01/13 00:56:25;;;;;;;4.25;1.40;;;17.80;58.50;;;;;;5053048;28;20184;-65
2023/01/13 00:58:55;;;;;;;4.90;1.30;;;17.80;58.50;;;;;;5052429;28;20187;-64
2023/01/13 01:01:21;;;;;;;5.63;1.60;;;17.80;58.50;;;;;;5052305;28;20210;-64
2023/01/13 01:03:48;;;;;;;2.65;1.42;;;17.70;58.40;;;;;;5052635;28;20171;-63
2023/01/13 01:06:15;;;;;;;5.63;1.85;;;17.70;58.50;;;;;;5052894;28;20183;-63
2023/01/13 01:08:41;;;;;;;4.68;1.70;;;17.80;58.50;;;;;;5051691;28;20581;-63
2023/01/13 01:11:12;;;;;;;3.03;1.42;;;17.70;58.40;;;;;;5052579;28;20266;-63
2023/01/13 01:13:37;;;;;;;2.80;1.58;;;17.70;59.00;;;;;;5052514;28;20228;-64
2023/01/13 01:16:05;;;;;;;3.08;1.30;;;17.70;58.40;;;;;;5052193;28;20171;-65
2023/01/13 01:18:34;;;;;;;4.53;1.35;;;17.70;59.10;;;;;;5052734;28;20183;-64
2023/01/13 01:21:00;;;;;;;5.40;2.00;;;17.70;58.40;;;;;;5052451;28;20231;-65
2023/01/13 01:23:27;;;;;;;3.95;1.60;;;17.70;58.40;;;;;;5052003;28;20175;-65
2023/01/13 01:25:53;;;;;;;3.97;1.70;;;17.60;58.40;;;;;;5052353;28;20182;-64
2023/01/13 01:28:19;;;;;;;4.57;1.80;;;17.70;58.30;;;;;;5052520;28;20205;-64
2023/01/13 01:30:45;;;;;;;2.47;1.25;;;17.60;58.30;;;;;;5051763;28;20248;-64
2023/01/13 01:33:10;;;;;;;4.93;1.73;;;17.60;58.30;;;;;;5052487;28;20207;-64
2023/01/13 01:35:39;;;;;;;5.72;1.92;;;17.60;58.40;;;;;;5052222;28;20175;-64
2023/01/13 01:38:05;;;;;;;3.85;1.60;;;17.60;58.20;;;;;;5051887;28;20233;-66
2023/01/13 01:40:30;;;;;;;3.95;1.40;;;17.60;58.30;;;;;;5052316;28;20244;-65
2023/01/13 01:45:40;;;;;;;4.60;2.10;;;17.60;58.20;;;;;;5052178;28;20178;-64
2023/01/13 01:48:05;;;;;;;5.80;2.15;;;17.60;58.20;;;;;;5052666;28;20175;-63
2023/01/13 01:50:31;;;;;;;4.35;1.67;;;17.50;58.10;;;;;;5050624;28;20182;-63
2023/01/13 01:52:59;;;;;;;6.53;2.20;;;17.50;58.10;;;;;;5052272;28;20199;-63
2023/01/13 01:55:28;;;;;;;5.82;2.08;;;17.50;58.10;;;;;;5051080;28;20186;-64
2023/01/13 01:58:01;;;;;;;4.70;1.80;;;17.50;58.10;;;;;;5051273;28;20645;-64
2023/01/13 02:00:27;;;;;;;4.53;2.05;;;17.50;58.10;;;;;;5051199;28;20218;-64
2023/01/13 02:02:52;;;;;;;5.57;1.95;;;17.50;58.10;;;;;;5050758;28;20171;-63
2023/01/13 02:05:18;;;;;;;6.57;2.33;;;17.50;58.10;;;;;;5051592;28;20181;-63
2023/01/13 02:07:44;;;;;;;5.82;2.03;;;17.50;58.00;;;;;;5051979;28;20171;-62
2023/01/13 02:10:12;;;;;;;6.38;2.10;;;17.50;58.00;;;;;;5052164;28;20622;-63
2023/01/13 02:12:37;;;;;;;6.80;2.38;;;17.50;58.00;;;;;;5051334;28;20552;-64
2023/01/13 02:15:04;;;;;;;5.57;2.40;;;17.50;58.00;;;;;;5034434;28;20749;-64
2023/01/13 02:17:39;;;;;;;7.28;2.15;;;17.50;58.00;;;;;;5050790;28;20183;-64
2023/01/13 02:20:32;;;;;;;6.13;2.00;;;17.40;57.90;;;;;;5051015;28;20227;-64
2023/01/13 02:24:52;;;;;;;5.07;2.03;;;17.40;58.00;;;;;;5052943;28;20660;-65
2023/01/13 02:26:26;;;;;;;6.25;2.13;;;17.50;58.00;;;;;;5054003;28;20186;-64
2023/01/13 02:32:07;;;;;;;6.55;2.22;;;17.40;57.90;;;;;;5055583;28;20233;-64
2023/01/13 02:34:41;;;;;;;5.70;2.13;;;17.40;58.00;;;;;;5037208;28;20575;-65
2023/01/13 02:37:12;;;;;;;4.50;1.90;;;17.40;57.80;;;;;;5038095;28;20171;-65
2023/01/13 02:39:40;;;;;;;6.95;2.72;;;17.40;57.90;;;;;;5036969;28;20648;-65
2023/01/13 02:45:03;;;;;;;7.68;2.72;;;17.40;57.80;;;;;;5055192;28;20194;-65
2023/01/13 02:47:29;;;;;;;7.00;2.17;;;17.40;57.90;;;;;;5037062;28;20178;-64
2023/01/13 02:50:00;;;;;;;6.10;2.38;;;17.30;57.90;;;;;;5037269;28;20178;-63
2023/01/13 02:52:32;;;;;;;6.57;2.67;;;17.30;57.80;;;;;;5037934;28;20634;-64
2023/01/13 02:55:01;;;;;;;7.70;2.75;;;17.30;57.80;;;;;;5053024;28;20190;-64
2023/01/13 02:57:27;;;;;;;4.93;2.00;;;17.30;57.80;;;;;;5053849;28;20179;-65
2023/01/13 02:59:53;;;;;;;5.57;2.22;;;17.30;57.80;;;;;;5036758;28;20210;-64
2023/01/13 03:02:19;;;;;;;5.45;1.95;;;17.30;57.70;;;;;;5036463;28;20232;-64
2023/01/13 03:04:55;;;;;;;7.60;2.92;;;17.30;57.80;;;;;;5053545;28;20167;-63
2023/01/13 03:08:06;;;;;;;6.50;2.20;;;17.30;57.70;;;;;;5054982;28;20175;-63
2023/01/13 03:10:57;;;;;;;6.57;2.25;;;17.30;57.70;;;;;;5046141;28;20274;-64
2023/01/13 03:13:50;;;;;;;6.05;2.50;;;17.20;57.70;;;;;;5051668;28;20253;-63
2023/01/13 03:16:34;;;;;;;7.60;2.85;;;17.20;57.70;;;;;;5054099;28;20229;-64
2023/01/13 03:19:09;;;;;;;6.07;2.55;;;17.20;57.60;;;;;;5054580;28;20650;-63
2023/01/13 03:21:55;;;;;;;6.72;2.13;;;17.20;57.70;;;;;;5052191;28;20234;-65
2023/01/13 03:24:34;;;;;;;5.63;2.20;;;17.20;57.60;;;;;;5054718;28;20512;-63
2023/01/13 03:27:07;;;;;;;6.38;2.75;;;17.20;57.60;;;;;;5053408;28;20187;-63
2023/01/13 03:29:37;;;;;;;5.43;2.28;;;17.20;57.50;;;;;;5053769;28;20571;-62
2023/01/13 03:32:27;;;;;;;9.75;2.75;;;17.20;57.60;;;;;;5036775;28;20179;-63
2023/01/13 03:34:54;;;;;;;7.15;2.00;;;17.20;57.50;;;;;;5051751;28;20711;-64
2023/01/13 03:37:25;;;;;;;6.85;2.58;;;17.20;57.60;;;;;;5052131;28;20183;-66
2023/01/13 03:39:53;;;;;;;6.93;2.15;;;17.20;57.60;;;;;;5036700;28;20210;-62
2023/01/13 03:42:22;;;;;;;8.70;2.92;;;17.20;57.60;;;;;;5036399;28;20653;-64
2023/01/13 03:44:56;;;;;;;6.60;2.17;;;17.20;57.40;;;;;;5053146;28;20183;-64
2023/01/13 03:47:40;;;;;;;6.90;2.42;;;17.20;57.50;;;;;;5052916;28;20179;-63
2023/01/13 03:50:14;;;;;;;7.70;2.38;;;17.20;57.50;;;;;;5036589;28;20175;-61
2023/01/13 03:52:42;;;;;;;6.55;2.67;;;17.10;57.50;;;;;;5054179;28;20175;-62
2023/01/13 03:55:17;;;;;;;8.95;2.75;;;17.10;57.40;;;;;;5036485;28;20540;-63
2023/01/13 03:57:52;;;;;;;6.63;2.50;;;17.10;57.40;;;;;;5052949;28;20700;-64
2023/01/13 04:00:19;;;;;;;7.93;2.38;;;17.10;57.40;;;;;;5052519;28;20240;-63
2023/01/13 04:02:51;;;;;;;7.30;2.58;;;17.10;57.40;;;;;;5052453;28;20187;-62
2023/01/13 04:05:17;;;;;;;6.10;2.25;;;17.10;57.40;;;;;;5052114;28;20190;-62
2023/01/13 04:07:51;;;;;;;9.68;2.50;;;17.10;57.30;;;;;;5053436;28;20537;-62
2023/01/13 04:10:27;;;;;;;6.70;2.60;;;17.10;57.30;;;;;;5052521;28;20240;-62
2023/01/13 04:13:00;;;;;;;6.88;2.17;;;17.10;57.30;;;;;;5034921;28;20579;-63
2023/01/13 04:15:30;;;;;;;8.32;2.65;;;17.10;57.30;;;;;;5036695;28;20190;-63
2023/01/13 04:18:10;;;;;;;9.38;2.60;;;17.10;57.30;;;;;;5035519;28;20658;-63
2023/01/13 04:20:36;;;;;;;6.55;2.15;;;17.10;57.30;;;;;;5053022;28;20238;-63
2023/01/13 04:23:01;;;;;;;8.68;3.03;;;17.10;57.20;;;;;;5053350;28;20748;-63
2023/01/13 04:25:27;;;;;;;8.00;2.50;;;17.00;57.20;;;;;;5051748;28;20219;-63
2023/01/13 04:27:52;;;;;;;7.63;2.42;;;17.00;57.20;;;;;;5053315;28;20178;-62
2023/01/13 04:30:18;;;;;;;6.22;2.30;;;17.00;57.20;;;;;;5053459;28;20182;-63
2023/01/13 04:32:43;;;;;;;7.53;2.75;;;17.00;57.20;;;;;;5052308;28;20167;-63
2023/01/13 04:35:09;;;;;;;8.55;2.97;;;17.00;57.10;;;;;;5053259;28;20596;-63
2023/01/13 04:37:35;;;;;;;7.20;2.55;;;17.00;57.10;;;;;;5052896;28;20656;-65
2023/01/13 04:40:00;;;;;;;9.93;3.10;;;17.00;57.10;;;;;;5052594;28;20332;-63
2023/01/13 04:42:26;;;;;;;7.32;3.20;;;17.00;57.10;;;;;;5053309;28;20258;-63
2023/01/13 04:44:51;;;;;;;7.07;2.53;;;17.00;57.70;;;;;;5052689;28;20286;-63
2023/01/13 04:47:17;;;;;;;7.78;2.53;;;17.00;57.00;;;;;;5052408;28;20634;-62
2023/01/13 04:49:42;;;;;;;5.95;2.40;;;17.00;57.10;;;;;;5052876;28;20713;-62
2023/01/13 04:52:08;;;;;;;5.07;2.22;;;17.00;57.10;;;;;;5052937;28;20265;-62
2023/01/13 04:54:33;;;;;;;5.50;2.13;;;17.00;57.00;;;;;;5051846;28;20273;-63
2023/01/13 04:56:59;;;;;;;6.85;2.63;;;16.90;56.90;;;;;;5052882;28;20259;-63
2023/01/13 04:59:24;;;;;;;7.10;2.53;;;17.00;57.00;;;;;;5053035;28;20290;-63
2023/01/13 05:01:50;;;;;;;5.93;2.42;;;16.90;57.10;;;;;;5051901;28;20282;-63
2023/01/13 05:04:15;;;;;;;6.18;2.30;;;16.90;57.00;;;;;;5052866;28;20262;-62
2023/01/13 05:06:41;;;;;;;6.15;2.17;;;16.90;56.90;;;;;;5052671;28;20250;-60
2023/01/13 05:09:07;;;;;;;6.63;2.65;;;16.90;56.90;;;;;;5051976;28;20179;-62
2023/01/13 05:17:00;;;;;;;6.88;2.45;;;16.90;56.70;;;;;;5052720;28;20665;-64
2023/01/13 05:19:31;;;;;;;6.35;2.00;;;16.90;56.80;;;;;;5051403;28;20182;-64
2023/01/13 05:27:25;;;;;;;7.07;2.78;;;16.90;56.70;;;;;;5052760;28;20249;-63
2023/01/13 05:29:50;;;;;;;7.00;2.50;;;16.90;56.80;;;;;;5051606;28;20230;-63
2023/01/13 05:32:16;;;;;;;6.22;2.13;;;16.90;56.70;;;;;;5052697;28;20171;-67
2023/01/13 05:34:41;;;;;;;5.47;1.98;;;16.90;56.70;;;;;;5052485;28;20521;-64
2023/01/13 05:37:09;;;;;;;7.07;2.20;;;16.90;56.80;;;;;;5051966;28;20562;-64
2023/01/13 05:45:04;;;;;;;7.85;2.35;;;16.90;56.70;;;;;;5052492;28;20217;-64
2023/01/13 05:47:30;;;;;;;5.13;2.10;;;16.80;56.60;;;;;;5052628;28;20179;-64
2023/01/13 05:49:56;;;;;;;5.40;1.85;;;16.80;56.70;;;;;;5051652;28;20214;-63
2023/01/13 05:52:21;;;;;;;4.22;1.92;;;16.80;56.70;;;;;;5052415;28;20532;-64
2023/01/13 05:54:47;;;;;;;6.43;1.75;;;16.80;57.30;;;;;;5052080;28;20263;-63
2023/01/13 05:57:12;;;;;;;7.60;2.28;;;16.80;56.80;;;;;;5052749;28;20198;-64
2023/01/13 05:59:38;;;;;;;4.88;2.15;;;16.80;56.60;;;;;;5055938;28;20543;-63
2023/01/13 06:02:03;;;;;;;4.18;1.65;;;16.80;56.60;;;;;;5056070;28;20675;-63
2023/01/13 06:04:29;;;;;;;6.13;2.22;;;16.80;56.70;;;;;;5055295;28;20179;-63
2023/01/13 06:06:54;;;;;;;4.95;1.85;;;16.80;56.60;;;;;;5055682;28;20178;-63
2023/01/13 06:09:21;;;;;;;7.55;2.45;;;16.70;56.60;;;;;;5055794;28;20179;-63
2023/01/13 06:11:47;;;;;;;5.63;1.70;;;16.70;57.30;;;;;;5054966;28;20225;-64
2023/01/13 06:14:16;;;;;;;5.07;1.95;;;16.70;56.60;;;;;;5056032;28;20175;-67
2023/01/13 06:16:41;;;;;;;6.18;2.00;;;16.70;56.50;;;;;;5055461;28;20182;-66
2023/01/13 06:19:08;;;;;;;5.40;1.90;;;16.70;56.60;;;;;;5055129;28;20171;-63
2023/01/13 06:21:34;;;;;;;5.82;2.10;;;16.70;56.70;;;;;;5055142;28;20222;-64
2023/01/13 06:23:59;;;;;;;5.90;1.92;;;16.70;56.50;;;;;;5055651;28;20182;-63
2023/01/13 06:26:25;;;;;;;5.07;1.73;;;16.70;56.60;;;;;;5055115;28;20171;-63
2023/01/13 06:28:51;;;;;;;5.88;2.35;;;16.70;56.60;;;;;;5054211;28;20190;-63
2023/01/13 06:31:16;;;;;;;3.63;1.63;;;16.70;56.60;;;;;;5055747;28;20171;-64
2023/01/13 06:33:50;;;;;;;5.45;1.90;;;16.70;56.60;;;;;;5054475;28;20266;-64
2023/01/13 06:36:18;;;;;;;6.53;2.40;;;16.70;56.50;;;;;;5055509;28;20179;-65
2023/01/13 06:38:45;;;;;;;5.53;2.08;;;16.70;56.60;;;;;;5053189;28;20183;-65
2023/01/13 06:41:10;;;;;;;6.90;1.67;;;16.70;56.50;;;;;;5054260;28;20215;-64
2023/01/13 06:43:37;;;;;;;4.90;1.77;;;16.70;56.50;;;;;;5053946;28;20629;-65
2023/01/13 06:46:02;;;;;;;4.20;1.52;;;16.70;56.50;;;;;;5053334;28;20657;-64
2023/01/13 06:48:34;;;;;;;4.85;1.65;;;16.70;56.50;;;;;;5055296;28;20183;-64
2023/01/13 06:51:00;;;;;;;5.10;1.75;;;16.70;56.50;;;;;;5055173;28;20178;-63
2023/01/13 06:53:25;;;;;;;3.75;1.70;;;16.70;56.50;;;;;;5054425;28;20175;-65
2023/01/13 06:55:51;;;;;;;4.57;1.90;;;16.70;56.60;;;;;;5054966;28;20277;-64
2023/01/13 06:58:16;;;;;;;5.93;2.42;;;16.60;56.50;;;;;;5055054;28;20199;-65
2023/01/13 07:00:42;;;;;;;6.47;1.77;;;16.70;56.60;;;;;;5053938;28;20241;-64
2023/01/13 07:03:11;;;;;;;3.70;1.60;;;16.70;56.60;;;;;;5054995;28;20202;-63
2023/01/13 07:05:37;;;;;;;3.83;1.65;;;16.60;56.50;;;;;;5054449;28;20187;-63
2023/01/13 07:08:03;;;;;;;7.65;2.20;;;16.60;56.40;;;;;;5054123;28;20702;-62
2023/01/13 07:10:29;;;;;;;4.40;2.03;;;16.60;56.50;;;;;;5054763;28;20179;-63
2023/01/13 07:15:39;;;;;;;5.97;2.38;;;16.60;56.40;;;;;;5053699;28;20182;-65
2023/01/13 07:18:04;;;;;;;4.80;1.90;;;16.60;56.50;;;;;;5054869;28;20164;-65
2023/01/13 07:20:30;;;;;;;4.78;1.63;;;16.60;56.50;;;;;;5054645;28;20692;-65
2023/01/13 07:22:56;;;;;;;3.95;1.65;;;16.50;56.50;;;;;;5054107;28;20178;-64
2023/01/13 07:25:21;;;;;;;5.65;1.90;;;16.60;56.50;;;;;;5054729;28;20228;-62
2023/01/13 07:27:47;;;;;;;4.10;2.00;;;16.60;56.50;;;;;;5053596;28;20633;-63
2023/01/13 07:30:13;;;;;;;7.15;1.83;;;16.60;56.40;;;;;;5054445;28;20208;-63
2023/01/13 07:32:38;;;;;;;5.97;1.88;;;16.60;56.40;;;;;;5054039;28;20245;-62
2023/01/13 07:35:04;;;;;;;7.78;2.13;;;16.60;56.50;;;;;;5053588;28;21006;-64
2023/01/13 07:37:34;;;;;;;4.00;1.75;;;16.60;56.40;;;;;;5054650;28;20577;-64
2023/01/13 07:40:00;;;;;;;5.53;1.67;;;16.50;56.40;;;;;;5054408;28;20207;-63
2023/01/13 07:45:10;;;;;;;5.97;2.22;;;16.50;56.30;;;;;;5054039;28;20209;-62
2023/01/13 07:47:35;;;;;;;5.60;1.90;;;16.50;56.20;;;;;;5053781;28;20174;-62
2023/01/13 07:50:01;;;;;;;5.47;1.85;;;16.50;56.20;;;;;;5053387;28;20206;-62
2023/01/13 07:52:26;;;;;;;6.28;2.25;;;16.50;56.30;;;;;;5054087;28;20213;-62
2023/01/13 07:54:52;;;;;;;6.03;2.10;;;16.50;56.40;;;;;;5053565;28;20655;-62
2023/01/13 07:57:17;;;;;;;3.58;1.60;;;16.50;56.30;;;;;;5053132;28;20172;-63
2023/01/13 07:59:43;;;;;;;7.55;1.95;;;16.50;56.20;;;;;;5053415;28;20195;-64
2023/01/13 08:02:11;;;;;;;5.50;1.95;;;16.50;56.30;;;;;;5054081;28;20175;-63
2023/01/13 08:04:37;;;;;;;6.13;1.98;;;16.40;56.30;;;;;;5052831;28;20172;-62
2023/01/13 08:07:03;;;;;;;3.95;1.65;;;16.50;56.50;;;;;;5053909;28;20653;-62
2023/01/13 08:09:29;;;;;;;5.20;2.10;;;16.60;56.40;;;;;;5053822;28;20175;-61
2023/01/13 08:14:39;;;;;;;5.47;2.15;;;16.60;56.30;;;;;;5053322;28;20182;-64
2023/01/13 08:17:05;;;;;;;4.47;2.15;;;16.60;56.20;;;;;;5052794;28;20587;-64
2023/01/13 08:19:31;;;;;;;5.40;2.53;;;16.60;56.10;;;;;;5052925;28;20586;-65
2023/01/13 08:21:56;;;;;;;5.10;1.85;;;16.60;56.10;;;;;;5052906;28;20313;-63
2023/01/13 08:24:22;;;;;;;5.03;1.85;;;16.60;56.10;;;;;;5052554;28;20262;-63
2023/01/13 08:26:47;;;;;;;5.60;1.70;;;16.60;56.20;;;;;;5052733;28;20265;-64
2023/01/13 08:29:13;;;;;;;3.55;1.65;;;16.60;56.70;;;;;;5053533;28;20262;-65
2023/01/13 08:31:39;;;;;;;7.20;1.98;;;16.60;56.30;;;;;;5053406;28;20258;-61
2023/01/13 08:34:04;;;;;;;7.53;1.75;;;16.50;56.70;;;;;;5053420;28;20277;-62
2023/01/13 08:36:30;;;;;;;4.47;1.83;;;16.60;56.60;;;;;;5053304;28;20171;-64
2023/01/13 08:38:55;;;;;;;7.05;1.90;;;16.60;56.90;;;;;;5051727;28;20231;-64
2023/01/13 08:41:53;;;;;;;8.73;2.40;;;16.60;56.70;;;;;;5052564;28;20199;-65
2023/01/13 08:44:08;;;;;;;7.53;2.08;;;16.70;56.60;;;;;;5051841;28;20270;-64
2023/01/13 08:46:33;;;;;;;5.63;1.85;;;16.70;56.50;;;;;;5051704;28;20186;-63
2023/01/13 08:48:59;;;;;;;3.67;1.85;;;16.70;56.50;;;;;;5052443;28;20548;-64
2023/01/13 08:51:25;;;;;;;7.53;2.15;;;16.70;56.30;;;;;;5052549;28;20187;-64
2023/01/13 08:53:50;;;;;;;5.78;2.03;;;16.70;56.30;;;;;;5051237;28;20194;-64
2023/01/13 08:56:16;;;;;;;6.95;2.40;;;16.70;56.80;;;;;;5052847;28;20179;-65
2023/01/13 08:58:41;;;;;;;6.72;2.17;;;16.60;56.90;;;;;;5052814;28;20222;-63
2023/01/13 09:01:07;;;;;;;5.72;2.03;;;16.70;56.60;;;;;;5052253;28;20238;-64
2023/01/13 09:03:33;;;;;;;6.55;2.33;;;16.70;56.90;;;;;;5052277;28;20174;-63
2023/01/13 09:05:58;;;;;;;6.82;2.10;;;16.70;56.90;;;;;;5052887;28;20274;-62
2023/01/13 09:08:24;;;;;;;5.57;2.00;;;16.70;57.10;;;;;;5052099;28;20258;-62
2023/01/13 09:10:49;;;;;;;6.47;2.40;;;16.70;56.80;;;;;;5052341;28;20186;-64
2023/01/13 09:13:15;;;;;;;4.53;2.00;;;16.60;57.00;;;;;;5050815;28;20167;-66
2023/01/13 09:15:43;;;;;;;7.75;2.30;;;16.70;56.60;;;;;;5052310;28;20593;-65
2023/01/13 09:18:09;;;;;;;5.32;1.67;;;16.70;56.50;;;;;;5052845;28;20178;-65
2023/01/13 09:20:34;;;;;;;4.75;2.17;;;16.70;56.50;;;;;;5051490;28;20551;-66
2023/01/13 09:23:00;;;;;;;7.15;2.65;;;16.70;56.50;;;;;;5052623;28;20190;-65
2023/01/13 09:25:25;;;;;;;8.73;2.47;;;16.70;56.40;;;;;;5052792;28;20709;-65
2023/01/13 09:27:51;;;;;;;6.32;2.38;;;16.70;56.50;;;;;;5051775;28;20722;-65
2023/01/13 09:30:17;;;;;;;6.68;2.28;;;16.70;56.50;;;;;;5052853;28;20167;-65
2023/01/13 09:32:42;;;;;;;6.60;2.20;;;16.70;56.60;;;;;;5055657;28;20649;-64
2023/01/13 09:35:08;;;;;;;6.22;1.75;;;16.70;57.10;;;;;;5055989;28;20633;-64
2023/01/13 09:37:36;;;;;;;5.38;2.20;;;16.70;56.70;;;;;;5056216;28;20193;-65
2023/01/13 09:40:03;;;;;;;6.95;2.42;;;16.70;56.60;;;;;;5056747;28;20218;-64
2023/01/13 09:45:54;;;;;;;4.50;2.15;;;16.70;56.60;;;;;;5055384;28;20300;-65
2023/01/13 09:48:25;;;;;;;7.13;2.20;;;16.70;56.60;;;;;;5055191;28;20171;-64
2023/01/13 09:51:06;;;;;;;5.93;2.78;;;16.70;56.70;;;;;;5054704;28;20179;-65
2023/01/13 09:53:33;;;;;;;7.45;2.72;;;16.70;56.70;;;;;;5056122;28;20175;-66
2023/01/13 09:55:59;;;;;;;7.28;1.90;;;16.70;56.70;;;;;;5055535;28;20237;-65
2023/01/13 09:58:24;;;;;;;7.95;2.13;;;16.70;56.60;;;;;;5054996;28;20269;-65
2023/01/13 10:01:05;;;;;;;5.70;2.03;;;16.70;56.60;;;;;;5054536;28;20215;-65
2023/01/13 10:03:31;;;;;;;5.25;1.58;;;16.70;56.70;;;;;;5054132;28;20186;-63
2023/01/13 10:06:03;;;;;;;7.57;2.30;;;16.70;56.80;;;;;;5054730;28;20198;-65
2023/01/13 10:08:32;;;;;;;7.18;2.83;;;16.70;57.30;;;;;;5054891;28;20180;-64
2023/01/13 10:14:22;;;;;;;4.63;2.00;;;16.70;56.90;;;;;;5054895;28;20214;-64
2023/01/13 10:17:05;;;;;;;4.00;1.80;;;16.70;57.00;;;;;;5050805;28;20183;-65
2023/01/13 10:19:32;;;;;;;7.38;2.30;;;16.70;57.10;;;;;;5055576;28;20183;-65
2023/01/13 10:22:31;;;;;;;5.82;2.00;;;16.70;57.10;;;;;;5054331;28;20230;-65
2023/01/13 10:25:08;;;;;;;6.82;2.25;;;16.80;57.30;;;;;;5054882;28;20167;-64
2023/01/13 10:27:36;;;;;;;7.72;2.40;;;16.80;57.10;;;;;;5055326;28;20198;-65
2023/01/13 10:30:18;;;;;;;4.07;2.03;;;16.80;57.00;;;;;;5056159;28;20183;-64
2023/01/13 10:32:51;;;;;;;4.43;1.92;;;16.80;57.10;;;;;;5054647;28;20182;-64
2023/01/13 10:35:17;;;;;;;6.47;2.40;;;16.90;57.10;;;;;;5054470;28;20167;-64
2023/01/13 10:37:54;;;;;;;6.28;2.42;;;16.80;57.10;;;;;;5054363;28;20171;-64
2023/01/13 10:40:21;;;;;;;7.07;2.15;;;16.80;57.20;;;;;;5055539;28;20202;-63
2023/01/13 10:42:46;;;;;;;6.00;2.42;;;16.80;57.20;;;;;;5054734;28;20171;-62
2023/01/13 10:45:23;;;;;;;6.85;2.08;;;16.80;57.40;;;;;;5054913;28;20270;-63
2023/01/13 10:48:01;;;;;;;6.85;2.08;;;16.80;57.30;;;;;;5054043;28;20175;-63
2023/01/13 10:50:28;;;;;;;4.72;2.13;;;16.80;57.00;;;;;;5054171;28;20186;-64
2023/01/13 10:53:01;;;;;;;6.97;2.30;;;16.70;57.00;;;;;;5054063;28;20648;-65
2023/01/13 10:55:39;;;;;;;6.70;2.58;;;16.80;57.10;;;;;;5055119;28;20707;-65
2023/01/13 10:58:16;;;;;;;6.05;2.38;;;16.80;57.00;;;;;;5055189;28;20175;-63
2023/01/13 11:00:41;;;;;;;7.35;2.65;;;16.80;57.00;;;;;;5053687;28;20297;-64
2023/01/13 11:03:23;;;;;;;7.10;2.33;;;16.80;57.00;;;;;;5053808;28;20195;-64
2023/01/13 11:05:50;;;;;;;5.18;2.28;;;16.70;57.00;;;;;;5054021;28;20182;-64
2023/01/13 11:08:40;;;;;;;5.18;2.20;;;16.80;56.90;;;;;;5053831;28;20587;-64
2023/01/13 11:11:43;;;;;;;7.10;2.95;;;16.80;57.00;;;;;;5052060;28;20262;-65
2023/01/13 11:14:40;;;;;;;5.22;1.90;;;16.70;57.00;;;;;;5054134;28;20178;-65
2023/01/13 11:17:15;;;;;;;6.28;2.33;;;16.70;57.10;;;;;;5053954;28;20199;-65
2023/01/13 11:19:48;;;;;;;5.88;2.05;;;16.70;57.00;;;;;;5053062;28;20179;-64
2023/01/13 11:22:24;;;;;;;8.15;2.50;;;16.60;57.00;;;;;;5053505;28;20186;-65
2023/01/13 11:24:53;;;;;;;4.82;1.95;;;16.70;57.00;;;;;;5053272;28;20186;-64
2023/01/13 11:27:39;;;;;;;8.07;2.70;;;16.70;57.10;;;;;;5052851;28;20175;-64
2023/01/13 11:30:34;;;;;;;5.55;2.28;;;16.70;57.30;;;;;;5054396;28;20209;-63
2023/01/13 11:33:09;;;;;;;7.82;2.15;;;16.70;57.40;;;;;;5054928;28;20183;-62
2023/01/13 11:35:37;;;;;;;10.75;2.45;;;16.60;57.20;;;;;;5053369;28;20635;-64
2023/01/13 11:38:27;;;;;;;4.32;2.30;;;16.60;57.40;;;;;;5052868;28;20216;-64
2023/01/13 11:40:53;;;;;;;6.63;2.78;;;16.70;57.50;;;;;;5054125;28;20681;-62
2023/01/13 11:43:34;;;;;;;6.80;2.65;;;16.60;57.60;;;;;;5052530;28;20217;-62
2023/01/13 11:45:59;;;;;;;6.00;2.10;;;16.60;57.50;;;;;;5053062;28;20183;-63
2023/01/13 11:48:30;;;;;;;6.95;2.28;;;16.50;57.30;;;;;;5052275;28;20182;-62
2023/01/13 11:51:03;;;;;;;6.10;2.25;;;16.60;57.40;;;;;;5052693;28;20179;-63
2023/01/13 11:54:01;;;;;;;7.15;2.55;;;16.60;57.40;;;;;;5054186;28;20167;-63
2023/01/13 11:56:50;;;;;;;4.60;1.90;;;16.70;57.40;;;;;;5044272;28;20187;-63
2023/01/13 11:59:53;;;;;;;6.80;2.50;;;16.70;57.30;;;;;;5052731;28;20568;-62
2023/01/13 12:02:21;;;;;;;5.18;2.42;;;16.80;57.10;;;;;;5053048;28;20186;-63
2023/01/13 12:05:13;;;;;;;6.28;2.38;;;16.90;57.20;;;;;;5053429;28;20229;-63
2023/01/13 12:07:52;;;;;;;6.38;2.42;;;16.80;57.10;;;;;;5052278;28;20285;-63
2023/01/13 12:10:52;;;;;;;4.95;2.08;;;16.90;57.20;;;;;;5051828;28;20170;-62
2023/01/13 12:13:46;;;;;;;6.13;1.88;;;16.90;57.20;;;;;;5052444;28;20209;-64
2023/01/13 12:16:24;;;;;;;5.18;2.13;;;16.80;57.40;;;;;;5151526;27;20285;-64
2023/01/13 12:19:06;;;;;;;6.25;2.38;;;16.80;57.40;;;;;;5131128;28;20833;-63
2023/01/13 12:21:35;;;;;;;7.05;2.35;;;16.80;57.50;;;;;;5131141;28;20181;-62
2023/01/13 12:24:16;;;;;;;5.43;1.80;;;16.80;57.60;;;;;;5095455;28;20180;-61
2023/01/13 12:26:53;;;;;;;8.45;2.92;;;16.80;57.80;;;;;;5112439;28;20267;-62
2023/01/13 12:29:19;;;;;;;6.20;2.38;;;16.80;57.60;;;;;;5129317;28;20184;-61
2023/01/13 12:31:47;;;;;;;5.50;2.25;;;16.90;57.50;;;;;;5090988;28;20177;-61
2023/01/13 12:34:31;;;;;;;6.05;2.55;;;16.90;57.70;;;;;;5126060;28;20232;-61
2023/01/13 12:37:12;;;;;;;7.70;2.47;;;17.00;57.70;;;;;;5130661;28;20601;-62
2023/01/13 12:40:15;;;;;;;6.93;2.05;;;17.10;57.60;;;;;;5096318;28;20168;-62
2023/01/13 12:45:32;;;;;;;5.03;1.90;;;17.30;57.20;;;;;;5129038;28;20179;-61
2023/01/13 12:47:57;;;;;;;6.32;1.98;;;17.50;57.10;;;;;;5130842;28;20176;-60
2023/01/13 12:50:26;;;;;;;6.05;1.95;;;17.70;56.80;;;;;;5130820;28;20507;-61
2023/01/13 12:52:53;;;;;;;4.60;1.92;;;17.90;56.50;;;;;;5129520;28;20168;-62
2023/01/13 12:55:33;;;;;;;7.03;2.42;;;18.10;56.20;;;;;;5111437;28;20208;-61
2023/01/13 12:58:05;;;;;;;5.55;1.80;;;18.20;55.90;;;;;;5112309;28;20173;-61
2023/01/13 13:01:05;;;;;;;5.38;1.90;;;18.40;55.60;;;;;;5129818;28;20259;-61
2023/01/13 13:03:32;;;;;;;6.55;2.15;;;18.40;55.30;;;;;;5091421;28;20177;-60
2023/01/13 13:06:17;;;;;;;3.30;2.05;;;18.50;55.30;;;;;;5090903;28;20174;-61
2023/01/13 13:09:19;;;;;;;3.95;1.73;;;18.60;55.30;;;;;;5109439;28;20169;-62
2023/01/13 13:14:36;;;;;;;5.60;1.83;;;18.60;55.10;;;;;;5093305;28;20281;-62
2023/01/13 13:17:27;;;;;;;4.85;1.60;;;18.60;55.00;;;;;;5109488;28;20538;-62
2023/01/13 13:19:52;;;;;;;4.53;1.90;;;18.60;54.90;;;;;;5108523;28;20175;-63
2023/01/13 13:22:27;;;;;;;4.00;2.08;;;18.70;54.90;;;;;;5091357;28;20256;-62
2023/01/13 13:24:56;;;;;;;4.57;1.70;;;18.70;55.00;;;;;;5109065;28;20213;-62
2023/01/13 13:27:30;;;;;;;2.80;1.52;;;18.70;55.00;;;;;;5097107;28;20205;-61
2023/01/13 13:29:57;;;;;;;4.60;2.08;;;18.70;55.00;;;;;;5095986;28;20173;-61
2023/01/13 13:32:34;;;;;;;4.65;1.95;;;18.70;55.00;;;;;;5095808;28;20189;-62
2023/01/13 13:35:19;;;;;;;4.90;2.08;;;18.70;55.00;;;;;;5094831;28;20679;-61
2023/01/13 13:46:56;;;;;;;5.15;2.25;;;18.60;55.00;;;;;;5095244;28;20334;-61
2023/01/13 13:49:45;;;;;;;5.53;1.75;;;18.60;55.00;;;;;;5097347;28;20256;-62
2023/01/13 13:52:20;;;;;;;4.35;1.60;;;18.70;55.00;;;;;;5117137;28;20203;-66
2023/01/13 13:54:48;;;;;;;3.15;1.58;;;18.70;55.00;;;;;;5119773;28;20200;-64
2023/01/13 13:57:27;;;;;;;4.25;1.85;;;18.60;55.10;;;;;;5097727;28;20198;-63
2023/01/13 13:59:57;;;;;;;4.57;2.00;;;18.70;55.20;;;;;;5097094;28;20930;-62